createdAt,value
2018-03-25T00:02:17.067Z,76.00
2018-03-25T00:04:49.228Z,76.10
2018-03-25T00:07:21.103Z,76.20
2018-03-25T00:09:53.011Z,76.20
2018-03-25T00:12:24.892Z,76.00
2018-03-25T00:14:57.585Z,76.20
2018-03-25T00:17:30.224Z,76.40
2018-03-25T00:20:02.116Z,76.40
2018-03-25T00:22:34.755Z,76.30
2018-03-25T00:25:06.872Z,76.30
2018-03-25T00:27:38.763Z,76.70
2018-03-25T00:30:10.648Z,76.70
2018-03-25T07:02:04.543Z,58.80
2018-03-25T07:04:37.215Z,59.00
2018-03-25T07:07:09.853Z,59.10
2018-03-25T07:09:41.765Z,59.10
2018-03-25T07:12:13.635Z,58.20
2018-03-25T07:14:45.527Z,56.80
2018-03-25T07:17:17.408Z,56.10
2018-03-25T07:19:49.305Z,55.30
2018-03-25T07:22:21.223Z,55.60
2018-03-25T07:24:53.107Z,55.00
2018-03-25T07:27:25.988Z,53.20
2018-03-25T07:29:58.640Z,52.60
2018-03-25T07:32:30.531Z,52.40
2018-03-25T07:35:03.184Z,52.30
2018-03-25T07:37:35.082Z,52.20
2018-03-25T07:40:07.736Z,52.60
2018-03-25T07:42:39.614Z,52.60
2018-03-25T07:45:12.267Z,51.40
2018-03-25T07:47:44.148Z,51.30
2018-03-25T07:50:16.802Z,52.40
2018-03-25T07:52:48.912Z,52.30
2018-03-25T07:55:20.849Z,51.10
2018-03-25T07:57:52.722Z,51.20
2018-03-25T08:00:25.376Z,50.80
2018-03-25T08:02:57.578Z,50.80
2018-03-25T08:05:29.464Z,51.50
2018-03-25T08:08:01.603Z,51.60
2018-03-25T08:10:33.512Z,51.30
2018-03-25T08:13:05.634Z,52.50
2018-03-25T08:15:37.528Z,53.50
2018-03-25T08:18:09.455Z,54.80
2018-03-25T08:20:41.366Z,56.30
2018-03-25T08:23:13.481Z,57.60
2018-03-25T08:25:45.437Z,58.50
2018-03-25T08:28:18.072Z,60.40
2018-03-25T08:30:50.283Z,60.30
2018-03-25T08:33:22.451Z,60.30
2018-03-25T08:35:54.335Z,61.10
2018-03-25T08:38:26.209Z,61.90
2018-03-25T08:40:58.096Z,61.50
2018-03-25T08:43:29.983Z,62.00
2018-03-25T08:46:02.639Z,62.60
2018-03-25T08:48:34.521Z,62.50
2018-03-25T08:51:07.180Z,62.70
2018-03-25T08:53:39.047Z,62.70
2018-03-25T08:56:11.712Z,62.70
2018-03-25T08:58:43.584Z,62.60
2018-03-25T09:01:16.239Z,62.40
2018-03-25T09:03:48.107Z,62.40
2018-03-25T09:06:20.043Z,62.60
2018-03-25T09:08:51.923Z,62.20
2018-03-25T09:11:24.028Z,61.80
2018-03-25T09:13:55.900Z,62.70
2018-03-25T09:16:27.791Z,62.50
2018-03-25T09:18:59.675Z,62.60
2018-03-25T09:21:31.670Z,62.00
2018-03-25T09:24:04.307Z,61.10
2018-03-25T09:26:36.208Z,61.10
2018-03-25T09:29:08.080Z,60.70
2018-03-25T09:31:39.966Z,61.00
2018-03-25T09:34:11.948Z,60.70
2018-03-25T09:36:43.835Z,60.40
2018-03-25T09:39:16.475Z,60.00
2018-03-25T09:41:48.371Z,60.00
2018-03-25T09:44:21.011Z,60.20
2018-03-25T09:46:52.906Z,60.30
2018-03-25T09:49:25.554Z,60.00
2018-03-25T09:51:57.443Z,60.40
2018-03-25T09:54:30.091Z,58.10
2018-03-25T09:57:02.020Z,58.00
2018-03-25T09:59:33.887Z,57.90
2018-03-25T10:02:05.776Z,58.10
2018-03-25T10:04:37.657Z,58.70
2018-03-25T10:07:09.548Z,58.20
2018-03-25T10:09:41.420Z,57.80
2018-03-25T10:12:13.323Z,58.20
2018-03-25T10:14:45.195Z,57.50
2018-03-25T10:17:17.092Z,57.90
2018-03-25T10:19:48.983Z,56.40
2018-03-25T10:22:20.872Z,55.50
2018-03-25T10:24:52.747Z,55.10
2018-03-25T10:27:25.404Z,54.80
2018-03-25T10:29:57.276Z,54.80
2018-03-25T10:32:29.167Z,55.50
2018-03-25T10:35:01.043Z,55.10
2018-03-25T10:37:32.934Z,53.80
2018-03-25T10:40:04.807Z,54.10
2018-03-25T10:42:36.918Z,53.70
2018-03-25T10:45:08.791Z,53.30
2018-03-25T10:47:40.684Z,52.80
2018-03-25T10:50:12.799Z,51.90
2018-03-25T10:52:44.968Z,52.00
2018-03-25T10:55:16.843Z,52.00
2018-03-25T10:57:48.729Z,51.80
2018-03-25T11:00:20.612Z,50.80
2018-03-25T11:02:52.500Z,50.70
2018-03-25T11:05:24.671Z,51.20
2018-03-25T11:07:56.574Z,51.20
2018-03-25T11:10:28.443Z,50.80
2018-03-25T11:13:00.330Z,51.30
2018-03-25T11:15:32.977Z,51.50
2018-03-25T11:18:04.898Z,51.50
2018-03-25T11:20:36.805Z,52.10
2018-03-25T11:23:08.695Z,52.30
2018-03-25T11:25:41.611Z,50.70
2018-03-25T11:28:13.505Z,50.60
2018-03-25T11:30:45.376Z,50.80
2018-03-25T11:33:17.272Z,50.40
2018-03-25T11:35:49.236Z,49.80
2018-03-25T11:38:21.898Z,49.50
2018-03-25T11:40:54.570Z,50.20
2018-03-25T11:43:27.247Z,49.20
2018-03-25T11:45:59.128Z,49.20
2018-03-25T11:48:31.789Z,49.20
2018-03-25T11:51:03.663Z,49.20
2018-03-25T11:53:36.336Z,48.90
2018-03-25T11:56:09.238Z,49.50
2018-03-25T11:58:41.412Z,49.30
2018-03-25T12:01:13.295Z,50.20
2018-03-25T12:03:45.185Z,50.50
2018-03-25T12:06:17.058Z,50.60
2018-03-25T12:08:49.748Z,49.20
2018-03-25T12:11:22.395Z,49.60
2018-03-25T12:13:54.706Z,49.60
2018-03-25T12:16:26.588Z,48.80
2018-03-25T12:18:58.526Z,49.60
2018-03-25T12:21:30.355Z,48.30
2018-03-25T12:24:02.240Z,49.00
2018-03-25T12:26:34.919Z,48.20
2018-03-25T12:29:07.571Z,48.60
2018-03-25T12:31:39.455Z,48.60
2018-03-25T12:34:12.137Z,47.80
2018-03-25T12:36:44.824Z,48.80
2018-03-25T12:39:16.703Z,48.80
2018-03-25T12:41:48.583Z,48.40
2018-03-25T12:44:20.480Z,48.30
2018-03-25T12:46:53.123Z,47.70
2018-03-25T12:49:25.011Z,47.70
2018-03-25T12:51:56.890Z,46.00
2018-03-25T12:54:29.544Z,46.50
2018-03-25T12:57:01.423Z,46.50
2018-03-25T12:59:34.075Z,46.50
2018-03-25T13:02:05.959Z,46.50
2018-03-25T13:04:38.869Z,47.00
2018-03-25T13:07:11.033Z,47.00
2018-03-25T13:09:42.919Z,47.20
2018-03-25T13:12:15.051Z,46.80
2018-03-25T13:14:46.951Z,46.60
2018-03-25T13:17:18.850Z,46.60
2018-03-25T13:19:50.736Z,46.70
2018-03-25T13:22:22.652Z,46.70
2018-03-25T13:24:54.535Z,47.60
2018-03-25T13:27:27.199Z,48.90
2018-03-25T13:29:59.089Z,48.90
2018-03-25T13:32:31.259Z,47.90
2018-03-25T13:35:03.151Z,48.80
2018-03-25T13:37:35.286Z,48.00
2018-03-25T13:40:07.191Z,48.90
2018-03-25T13:42:39.419Z,48.30
2018-03-25T13:45:11.584Z,47.70
2018-03-25T13:47:43.460Z,47.30
2018-03-25T13:50:15.350Z,48.20
2018-03-25T13:52:47.235Z,46.50
2018-03-25T13:55:20.147Z,47.60
2018-03-25T13:57:52.022Z,47.30
2018-03-25T14:00:23.907Z,47.60
2018-03-25T14:02:55.824Z,47.60
2018-03-25T14:05:27.703Z,48.20
2018-03-25T14:07:59.584Z,47.40
2018-03-25T14:10:31.497Z,48.20
2018-03-25T14:13:04.138Z,47.80
2018-03-25T14:15:36.034Z,47.80
2018-03-25T14:18:08.684Z,47.80
2018-03-25T14:20:40.570Z,47.80
2018-03-25T14:23:13.223Z,47.10
2018-03-25T14:25:45.103Z,47.00
2018-03-25T14:28:17.750Z,44.60
2018-03-25T14:30:49.631Z,44.60
2018-03-25T14:33:21.515Z,46.30
2018-03-25T14:35:53.412Z,46.90
2018-03-25T14:38:25.661Z,47.70
2018-03-25T14:40:57.544Z,48.60
2018-03-25T14:43:29.428Z,48.70
2018-03-25T14:46:01.312Z,48.80
2018-03-25T14:48:34.005Z,49.00
2018-03-25T14:51:06.182Z,49.00
2018-03-25T14:53:38.057Z,49.30
2018-03-25T14:56:09.979Z,48.90
2018-03-25T14:58:42.619Z,48.90
2018-03-25T15:01:14.517Z,48.90
2018-03-25T15:03:47.163Z,48.80
2018-03-25T15:06:19.056Z,48.80
2018-03-25T15:08:51.696Z,48.10
2018-03-25T15:11:23.582Z,48.00
2018-03-25T15:13:55.464Z,47.90
2018-03-25T15:16:28.120Z,48.80
2018-03-25T15:18:59.992Z,48.70
2018-03-25T15:21:32.644Z,48.50
2018-03-25T15:24:04.751Z,48.40
2018-03-25T15:26:36.654Z,48.70
2018-03-25T15:29:08.780Z,48.70
2018-03-25T15:31:40.672Z,49.00
2018-03-25T15:34:12.563Z,49.30
2018-03-25T15:36:44.452Z,49.70
2018-03-25T15:39:17.102Z,48.90
2018-03-25T15:41:48.992Z,48.90
2018-03-25T15:44:20.900Z,49.50
2018-03-25T15:46:52.829Z,50.00
2018-03-25T15:49:24.719Z,50.70
2018-03-25T15:51:56.619Z,51.00
2018-03-25T15:54:29.264Z,51.10
2018-03-25T15:57:01.154Z,51.10
2018-03-25T15:59:33.800Z,51.80
2018-03-25T16:02:05.693Z,51.80
2018-03-25T16:04:38.332Z,52.20
2018-03-25T16:07:10.447Z,51.80
2018-03-25T16:09:43.100Z,52.80
2018-03-25T16:12:14.986Z,52.80
2018-03-25T16:14:47.628Z,52.90
2018-03-25T16:17:19.742Z,53.50
2018-03-25T16:19:52.010Z,52.70
2018-03-25T16:22:23.895Z,53.00
2018-03-25T16:24:55.815Z,53.30
2018-03-25T16:27:28.467Z,53.50
2018-03-25T16:30:00.347Z,53.50
2018-03-25T16:32:33.036Z,53.60
2018-03-25T16:35:06.043Z,53.60
2018-03-25T16:37:38.209Z,53.80
2018-03-25T16:40:10.076Z,53.90
2018-03-25T16:42:41.971Z,54.00
2018-03-25T16:45:13.840Z,54.20
2018-03-25T16:47:45.777Z,54.40
2018-03-25T16:50:17.637Z,54.60
2018-03-25T16:52:49.548Z,54.70
2018-03-25T16:55:22.198Z,54.80
2018-03-25T16:57:54.411Z,54.80
2018-03-25T17:00:26.283Z,55.10
2018-03-25T17:02:58.176Z,55.20
2018-03-25T17:05:30.063Z,55.40
2018-03-25T17:08:02.819Z,56.20
2018-03-25T17:10:34.694Z,56.00
2018-03-25T17:13:06.643Z,56.50
2018-03-25T17:15:38.518Z,56.50
2018-03-25T17:18:10.454Z,56.30
2018-03-25T17:20:42.588Z,56.60
2018-03-25T17:23:14.471Z,57.00
2018-03-25T17:25:46.350Z,57.20
2018-03-25T17:28:18.245Z,57.30
2018-03-25T17:30:50.929Z,57.70
2018-03-25T17:33:23.828Z,58.00
2018-03-25T17:35:55.711Z,58.00
2018-03-25T17:38:27.596Z,58.20
2018-03-25T17:40:59.500Z,58.70
2018-03-25T17:43:32.149Z,59.10
2018-03-25T17:46:04.039Z,59.10
2018-03-25T17:48:36.695Z,59.10
2018-03-25T17:51:09.604Z,59.50
2018-03-25T17:53:41.507Z,59.40
2018-03-25T17:56:13.379Z,59.50
2018-03-25T17:58:45.283Z,59.80
2018-03-25T18:01:17.182Z,60.10
2018-03-25T18:03:49.321Z,59.40
2018-03-25T18:06:21.195Z,59.70
2018-03-25T18:08:53.084Z,59.80
2018-03-25T18:11:24.968Z,59.80
2018-03-25T18:13:57.652Z,60.30
2018-03-25T18:16:30.555Z,59.90
2018-03-25T18:19:02.559Z,60.30
2018-03-25T18:21:34.436Z,60.10
2018-03-25T18:24:06.379Z,60.30
2018-03-25T18:26:38.579Z,60.40
2018-03-25T18:29:11.280Z,60.70
2018-03-25T18:31:43.191Z,60.50
2018-03-25T18:34:15.080Z,60.80
2018-03-25T18:36:47.556Z,61.00
2018-03-25T18:39:19.443Z,61.70
2018-03-25T18:41:51.610Z,61.30
2018-03-25T18:44:23.499Z,61.10
2018-03-25T18:46:55.383Z,61.10
2018-03-25T18:49:27.349Z,61.50
2018-03-25T18:51:59.536Z,61.80
2018-03-25T18:54:32.207Z,61.60
2018-03-25T18:57:04.079Z,61.60
2018-03-25T18:59:37.195Z,61.90
2018-03-25T19:02:09.087Z,61.90
2018-03-25T19:04:41.002Z,62.30
2018-03-25T19:07:12.932Z,62.30
2018-03-25T19:09:44.867Z,62.10
2018-03-25T19:12:16.834Z,61.80
2018-03-25T19:14:48.719Z,62.00
2018-03-25T19:17:20.688Z,61.70
2018-03-25T19:19:53.709Z,62.10
2018-03-25T19:22:25.599Z,61.90
2018-03-25T19:24:57.575Z,61.90
2018-03-25T19:27:29.424Z,62.00
2018-03-25T19:30:01.333Z,62.10
2018-03-25T19:32:33.978Z,62.30
2018-03-25T19:35:05.867Z,62.30
2018-03-25T19:37:38.531Z,62.30
2018-03-25T19:40:11.184Z,62.80
2018-03-25T19:42:43.140Z,62.10
2018-03-25T19:45:15.123Z,62.20
2018-03-25T19:47:47.224Z,62.50
2018-03-25T19:50:19.127Z,62.40
2018-03-25T19:52:51.105Z,62.30
2018-03-25T19:55:23.004Z,62.10
2018-03-25T19:57:55.046Z,62.30
2018-03-25T20:00:27.775Z,62.20
2018-03-25T20:02:59.759Z,62.10
2018-03-25T20:05:31.654Z,62.20
2018-03-25T20:08:04.676Z,62.60
2018-03-25T20:10:36.707Z,62.60
2018-03-25T20:13:08.596Z,62.60
2018-03-25T20:15:40.483Z,62.90
2018-03-25T20:18:12.359Z,63.10
2018-03-25T20:20:45.880Z,63.80
2018-03-25T20:23:18.530Z,63.50
2018-03-25T20:25:50.432Z,63.50
2018-03-25T20:28:23.075Z,63.60
2018-03-25T20:30:55.883Z,63.60
